Time;durP1;ratioP1;P1;durP2;ratioP2;P2;SDS_P1;SDS_P2;PMS_P1;PMS_P2;Temp;Humidity;BMP_temperature;BMP_pressure;BME280_temperature;BME280_humidity;BME280_pressure;Samples;Min_cycle;Max_cycle;Signal;HPM_P1;HPM_P2
2022/10/07 00:02:04;;;;;;;;;4.00;2.25;;;;;12.78;66.12;102630.91;4911271;29;9829;-69
2022/10/07 00:04:30;;;;;;;;;4.00;4.00;;;;;12.74;65.85;102624.13;4913942;29;9878;-66
2022/10/07 00:06:56;;;;;;;;;3.25;3.25;;;;;12.68;66.38;102623.94;4916268;29;9867;-66
2022/10/07 00:09:23;;;;;;;;;5.00;3.00;;;;;12.60;66.34;102614.81;4909082;29;9900;-68
2022/10/07 00:11:49;;;;;;;;;4.00;4.00;;;;;12.59;66.81;102609.56;4907462;29;9787;-67
2022/10/07 00:14:16;;;;;;;;;2.50;2.50;;;;;12.60;66.88;102613.97;4909421;29;9772;-66
2022/10/07 00:16:42;;;;;;;;;1.00;1.00;;;;;12.61;66.94;102612.97;4916217;29;9897;-66
2022/10/07 00:19:11;;;;;;;;;3.00;3.00;;;;;12.61;67.08;102611.09;4918101;29;9622;-69
2022/10/07 00:21:39;;;;;;;;;6.00;5.25;;;;;12.58;66.98;102607.88;4914899;29;9684;-65
2022/10/07 00:24:06;;;;;;;;;2.25;2.25;;;;;12.61;66.93;102602.16;4910043;29;10456;-66
2022/10/07 00:26:35;;;;;;;;;4.00;4.00;;;;;12.57;66.88;102607.03;4910438;29;9579;-66
2022/10/07 00:29:03;;;;;;;;;2.25;2.00;;;;;12.59;67.27;102599.59;4918061;29;9838;-66
2022/10/07 00:31:32;;;;;;;;;2.25;1.25;;;;;12.59;67.27;102604.16;4916943;28;9687;-64
2022/10/07 00:34:01;;;;;;;;;3.50;1.75;;;;;12.57;67.09;102606.19;4921607;29;9802;-66
2022/10/07 00:36:30;;;;;;;;;3.00;3.00;;;;;12.56;67.31;102605.34;4920357;29;9769;-67
2022/10/07 00:39:06;;;;;;;;;3.50;2.75;;;;;12.56;67.36;102604.50;4937850;29;9752;-67
2022/10/07 00:41:38;;;;;;;;;4.00;4.00;;;;;12.56;67.36;102599.94;4920574;29;10106;-67
2022/10/07 00:44:28;;;;;;;;;5.50;3.00;;;;;12.57;67.46;102600.78;4904120;29;9834;-67
2022/10/07 00:46:55;;;;;;;;;5.75;2.00;;;;;12.56;67.45;102594.53;4927367;29;10010;-66
2022/10/07 00:49:21;;;;;;;;;3.50;1.00;;;;;12.53;67.60;102588.63;4910372;29;9807;-67
2022/10/07 00:51:49;;;;;;;;;1.00;1.00;;;;;12.49;67.80;102589.97;4917936;29;9707;-67
2022/10/07 00:54:17;;;;;;;;;2.50;2.50;;;;;12.51;68.11;102587.94;4909052;29;9817;-66
2022/10/07 00:56:45;;;;;;;;;5.00;3.75;;;;;12.53;68.01;102586.75;4910279;29;9791;-67
2022/10/07 00:59:13;;;;;;;;;4.00;2.00;;;;;12.57;67.80;102581.88;4918146;29;9795;-67
2022/10/07 01:01:40;;;;;;;;;2.25;2.25;;;;;12.57;67.89;102574.63;4917707;29;9694;-67
2022/10/07 01:04:10;;;;;;;;;3.75;2.00;;;;;12.58;68.07;102581.69;4913284;29;9702;-64
2022/10/07 01:06:38;;;;;;;;;1.50;1.50;;;;;12.55;67.62;102573.06;4915377;29;9719;-64
2022/10/07 01:09:09;;;;;;;;;4.00;4.00;;;;;12.51;68.07;102569.84;4920191;29;9902;-64
2022/10/07 01:11:52;;;;;;;;;4.00;2.00;;;;;12.53;68.16;102561.59;4911229;29;9765;-65
2022/10/07 01:14:59;;;;;;;;;2.25;2.00;;;;;12.47;68.09;102567.66;4910924;29;9783;-67
2022/10/07 01:17:33;;;;;;;;;2.75;1.00;;;;;12.44;68.39;102559.91;4918137;29;9784;-66
2022/10/07 01:20:14;;;;;;;;;6.25;2.50;;;;;12.45;68.56;102553.50;4921127;29;9700;-65
2022/10/07 01:22:46;;;;;;;;;2.00;2.00;;;;;12.42;68.54;102546.53;4923889;29;9710;-65
2022/10/07 01:25:35;;;;;;;;;2.50;2.50;;;;;12.38;68.79;102545.19;4906011;29;9633;-67
2022/10/07 01:28:15;;;;;;;;;2.75;1.75;;;;;12.33;68.95;102537.59;4922159;28;9917;-65
2022/10/07 01:30:47;;;;;;;;;2.25;2.00;;;;;12.34;68.69;102535.72;4924685;29;9897;-67
2022/10/07 01:33:19;;;;;;;;;2.50;1.00;;;;;12.33;69.07;102534.03;4919439;28;9706;-66
2022/10/07 01:35:49;;;;;;;;;6.00;3.25;;;;;12.33;69.57;102534.03;4920214;29;9775;-64
2022/10/07 01:38:21;;;;;;;;;2.00;2.00;;;;;12.34;69.45;102523.06;4907159;29;9923;-62
2022/10/07 01:40:56;;;;;;;;;3.50;2.25;;;;;12.36;69.37;102521.06;4924369;29;9783;-64
2022/10/07 01:43:23;;;;;;;;;2.75;2.75;;;;;12.40;69.29;102524.28;4928103;28;10111;-65
2022/10/07 01:45:52;;;;;;;;;2.50;1.00;;;;;12.42;69.67;102513.28;4904832;29;10010;-67
2022/10/07 01:48:18;;;;;;;;;4.50;2.00;;;;;12.42;69.08;102516.84;4939555;28;9809;-67
2022/10/07 01:50:46;;;;;;;;;1.00;1.00;;;;;12.42;69.51;102508.75;4915316;28;9812;-67
2022/10/07 01:53:22;;;;;;;;;1.00;1.00;;;;;12.45;69.44;102499.47;4914983;29;9784;-65
2022/10/07 01:56:14;;;;;;;;;3.00;3.00;;;;;12.42;69.30;102491.69;4919883;29;9666;-66
2022/10/07 01:59:15;;;;;;;;;4.75;2.50;;;;;12.40;69.63;102486.47;4920954;29;9753;-67
2022/10/07 02:01:53;;;;;;;;;2.00;2.00;;;;;12.43;69.60;102477.16;4919037;29;9694;-67
2022/10/07 02:04:42;;;;;;;;;4.50;1.50;;;;;12.42;69.55;102483.59;4922060;29;9781;-67
2022/10/07 02:07:47;;;;;;;;;3.50;2.00;;;;;12.38;69.55;102470.41;4922809;29;9628;-67
2022/10/07 02:10:44;;;;;;;;;3.00;3.00;;;;;12.32;69.56;102465.69;4913949;29;9953;-64
2022/10/07 02:13:36;;;;;;;;;2.75;2.25;;;;;12.28;69.74;102450.84;4914080;29;9806;-66
2022/10/07 02:16:36;;;;;;;;;5.25;3.50;;;;;12.29;69.60;102448.97;4929264;28;9900;-66
2022/10/07 02:19:10;;;;;;;;;3.50;2.50;;;;;12.22;69.98;102440.69;4913877;29;9938;-66
2022/10/07 02:21:38;;;;;;;;;4.50;3.00;;;;;12.21;70.12;102438.16;4928438;29;9983;-67
2022/10/07 02:24:09;;;;;;;;;1.25;1.25;;;;;12.24;70.17;102435.97;4922905;29;9877;-67
2022/10/07 02:26:39;;;;;;;;;2.00;2.00;;;;;12.26;70.04;102439.34;4921398;29;9925;-67
2022/10/07 02:29:07;;;;;;;;;4.50;4.50;;;;;12.24;70.08;102429.72;4926763;29;9925;-67
2022/10/07 02:31:37;;;;;;;;;4.75;2.00;;;;;12.20;70.17;102431.91;4924287;28;9903;-67
2022/10/07 02:34:08;;;;;;;;;4.50;2.75;;;;;12.20;70.37;102431.91;4930053;29;9951;-66
2022/10/07 02:36:43;;;;;;;;;5.00;3.00;;;;;12.20;70.42;102434.63;4923408;29;9875;-66
2022/10/07 02:39:11;;;;;;;;;2.75;2.75;;;;;12.19;70.68;102434.75;4916329;29;9894;-66
2022/10/07 02:42:03;;;;;;;;;2.25;2.00;;;;;12.17;70.60;102426.84;4915709;29;9880;-66
2022/10/07 02:44:40;;;;;;;;;3.50;3.50;;;;;12.12;70.47;102423.81;4921050;29;9648;-65
2022/10/07 02:47:20;;;;;;;;;5.75;3.75;;;;;12.09;70.74;102419.56;4912667;29;9964;-66
2022/10/07 02:49:52;;;;;;;;;4.25;2.00;;;;;12.04;70.89;102421.94;4908559;29;9964;-66
2022/10/07 02:52:21;;;;;;;;;5.50;3.25;;;;;12.02;71.03;102417.69;4920619;29;9848;-65
2022/10/07 02:54:56;;;;;;;;;4.00;4.00;;;;;11.97;71.47;102415.50;4914558;29;9868;-66
2022/10/07 02:57:25;;;;;;;;;3.00;3.00;;;;;12.00;71.50;102415.16;4934917;28;9974;-66
2022/10/07 02:59:53;;;;;;;;;3.00;2.00;;;;;12.03;71.78;102403.19;4924809;29;9896;-67
2022/10/07 03:02:30;;;;;;;;;3.50;2.00;;;;;12.02;71.75;102409.59;4918037;29;9858;-67
2022/10/07 03:04:57;;;;;;;;;5.25;5.00;;;;;12.04;71.74;102397.63;4924999;29;9900;-66
2022/10/07 03:07:24;;;;;;;;;2.00;2.00;;;;;12.03;71.69;102404.06;4928203;29;10069;-67
2022/10/07 03:09:51;;;;;;;;;2.50;2.50;;;;;12.05;71.69;102406.56;4917274;28;10075;-66
2022/10/07 03:12:18;;;;;;;;;2.25;2.25;;;;;12.07;71.69;102400.00;4904173;29;9746;-66
2022/10/07 03:14:48;;;;;;;;;2.50;2.25;;;;;12.06;71.48;102398.31;4922073;29;9873;-66
2022/10/07 03:17:17;;;;;;;;;6.50;5.00;;;;;12.04;71.51;102391.41;4921757;29;9869;-67
2022/10/07 03:19:43;;;;;;;;;3.50;3.50;;;;;12.04;71.66;102391.41;4930412;29;9909;-67
2022/10/07 03:22:11;;;;;;;;;5.25;4.50;;;;;12.01;71.64;102384.47;4922867;29;10582;-67
2022/10/07 03:24:40;;;;;;;;;3.00;3.00;;;;;12.03;71.58;102381.59;4902516;29;9960;-68
2022/10/07 03:27:07;;;;;;;;;2.00;2.00;;;;;12.05;71.42;102384.97;4922776;29;10051;-67
2022/10/07 03:29:36;;;;;;;;;4.00;3.00;;;;;12.01;71.58;102383.63;4938664;28;10803;-67
2022/10/07 03:32:04;;;;;;;;;5.00;5.00;;;;;12.00;71.57;102384.66;4934254;28;10050;-67
2022/10/07 03:34:31;;;;;;;;;4.00;2.00;;;;;11.99;71.90;102380.22;4899456;29;10080;-66
2022/10/07 03:36:59;;;;;;;;;8.50;4.50;;;;;11.96;71.70;102375.19;4919460;29;9819;-65
2022/10/07 03:39:26;;;;;;;;;4.25;3.25;;;;;11.92;71.97;102373.84;4917810;29;10037;-67
2022/10/07 03:41:53;;;;;;;;;7.00;4.25;;;;;11.93;72.10;102378.22;4914847;29;10039;-67
2022/10/07 03:44:21;;;;;;;;;4.25;2.50;;;;;11.91;72.06;102377.50;4932260;29;10002;-67
2022/10/07 03:46:50;;;;;;;;;5.00;4.00;;;;;11.90;72.10;102370.44;4909722;29;10057;-66
2022/10/07 03:49:19;;;;;;;;;4.25;3.25;;;;;11.88;72.29;102370.63;4913723;29;10019;-67
2022/10/07 03:51:46;;;;;;;;;5.00;3.50;;;;;11.88;72.12;102374.16;4923109;29;10259;-67
2022/10/07 03:54:13;;;;;;;;;10.50;9.00;;;;;11.87;72.07;102371.63;4914369;29;10052;-66
2022/10/07 03:56:39;;;;;;;;;4.25;3.00;;;;;11.90;72.00;102375.84;4908439;29;10011;-67
2022/10/07 03:59:05;;;;;;;;;5.00;5.00;;;;;11.87;71.57;102366.25;4921707;29;9976;-67
2022/10/07 04:01:33;;;;;;;;;9.00;6.00;;;;;11.80;71.95;102365.16;4919740;29;9953;-67
2022/10/07 04:04:00;;;;;;;;;5.00;5.00;;;;;11.76;72.47;102361.97;4919400;29;11133;-65
2022/10/07 04:06:30;;;;;;;;;11.25;10.25;;;;;11.73;72.60;102358.75;4915863;29;10044;-67
2022/10/07 04:08:59;;;;;;;;;5.75;4.00;;;;;11.74;72.44;102358.56;4914970;29;10226;-67
2022/10/07 04:11:26;;;;;;;;;8.00;7.00;;;;;11.75;72.65;102352.19;4913721;29;9963;-67
2022/10/07 04:13:54;;;;;;;;;7.75;6.00;;;;;11.75;72.20;102354.00;4920608;28;9964;-66
2022/10/07 04:16:23;;;;;;;;;5.25;5.00;;;;;11.73;72.64;102348.78;4898817;28;10169;-67
2022/10/07 04:18:53;;;;;;;;;5.25;5.00;;;;;11.69;72.23;102358.22;4919869;29;10814;-67
2022/10/07 04:21:20;;;;;;;;;5.75;4.50;;;;;11.69;72.73;102354.69;4938895;28;10045;-67
2022/10/07 04:23:47;;;;;;;;;8.25;5.50;;;;;11.70;72.95;102346.41;4906774;29;10053;-66
2022/10/07 04:26:14;;;;;;;;;9.50;6.50;;;;;11.73;72.80;102353.34;4913869;29;10153;-67
2022/10/07 04:28:44;;;;;;;;;6.00;6.00;;;;;11.73;72.78;102346.09;4909067;29;10204;-67
2022/10/07 04:31:15;;;;;;;;;7.75;7.50;;;;;11.72;72.22;102346.25;4922389;29;10040;-67
2022/10/07 04:33:45;;;;;;;;;5.50;5.25;;;;;11.69;72.26;102343.88;4924686;29;10883;-67
2022/10/07 04:36:17;;;;;;;;;8.75;7.75;;;;;11.60;72.53;102343.03;4924746;28;10208;-67
2022/10/07 04:38:49;;;;;;;;;8.50;6.25;;;;;11.62;73.20;102341.84;4910550;28;10077;-65
2022/10/07 04:41:20;;;;;;;;;5.25;5.25;;;;;11.62;73.06;102332.91;4929327;29;10105;-68
2022/10/07 04:43:51;;;;;;;;;6.25;5.75;;;;;11.65;72.61;102340.66;4908460;29;10036;-67
2022/10/07 04:46:23;;;;;;;;;6.50;6.50;;;;;11.63;72.63;102334.63;4973197;23;10136;-64
2022/10/07 04:48:57;;;;;;;;;5.50;5.50;;;;;11.57;72.58;102332.56;4963299;28;10159;-65
2022/10/07 04:51:26;;;;;;;;;10.75;7.75;;;;;11.57;72.83;102340.66;4958649;28;10071;-66
2022/10/07 04:53:56;;;;;;;;;7.75;7.00;;;;;11.57;72.51;102329.88;4969699;28;10207;-65
2022/10/07 04:56:30;;;;;;;;;13.00;8.25;;;;;11.54;72.89;102336.41;4962738;28;10206;-64
2022/10/07 04:58:56;;;;;;;;;8.25;8.00;;;;;11.50;72.71;102334.22;4960052;28;10384;-65
2022/10/07 05:01:23;;;;;;;;;8.25;7.75;;;;;11.50;72.86;102329.66;4943966;28;10252;-65
2022/10/07 05:03:49;;;;;;;;;5.00;4.00;;;;;11.49;72.58;102325.28;4961195;28;10177;-65
2022/10/07 05:06:17;;;;;;;;;7.00;5.75;;;;;11.49;72.36;102324.44;4949379;28;10020;-65
2022/10/07 05:08:44;;;;;;;;;10.75;7.00;;;;;11.46;72.68;102324.75;4946909;28;10197;-66
2022/10/07 05:11:12;;;;;;;;;5.00;5.00;;;;;11.42;73.10;102318.00;4951686;28;10296;-66
2022/10/07 05:13:51;;;;;;;;;5.75;5.75;;;;;11.41;73.10;102313.63;4940400;28;10094;-66
2022/10/07 05:16:18;;;;;;;;;8.00;6.00;;;;;11.44;72.96;102310.63;4945948;28;10421;-66
2022/10/07 05:18:45;;;;;;;;;5.75;5.75;;;;;11.48;72.49;102306.59;4945881;28;10122;-66
2022/10/07 05:21:13;;;;;;;;;8.00;8.00;;;;;11.39;72.90;102309.25;4948010;28;10241;-66
2022/10/07 05:23:43;;;;;;;;;5.50;5.50;;;;;11.37;73.01;102297.78;4948356;28;10052;-66
2022/10/07 05:26:14;;;;;;;;;9.00;7.25;;;;;11.35;72.98;102304.38;4948365;28;10914;-65
2022/10/07 05:28:48;;;;;;;;;10.00;8.00;;;;;11.32;73.03;102308.22;4944124;28;10337;-66
2022/10/07 05:31:19;;;;;;;;;6.50;4.50;;;;;11.26;73.11;102302.63;4965099;28;10284;-65
2022/10/07 05:33:50;;;;;;;;;5.75;5.25;;;;;11.26;72.99;102299.94;4957093;28;10201;-66
2022/10/07 05:36:19;;;;;;;;;3.50;3.50;;;;;11.29;73.07;102296.91;4948198;28;10196;-66
2022/10/07 05:38:46;;;;;;;;;6.00;5.25;;;;;11.32;73.38;102293.91;4962151;28;10621;-66
2022/10/07 05:41:13;;;;;;;;;9.75;6.75;;;;;11.33;72.90;102304.50;4946783;28;10065;-66
2022/10/07 05:43:42;;;;;;;;;5.00;5.00;;;;;11.33;73.13;102298.28;4941563;28;10151;-66
2022/10/07 05:46:14;;;;;;;;;6.75;5.50;;;;;11.33;72.92;102292.88;4948295;28;10881;-65
2022/10/07 05:48:47;;;;;;;;;8.25;8.00;;;;;11.34;72.74;102290.03;4948257;29;10136;-66
2022/10/07 05:51:14;;;;;;;;;4.50;4.50;;;;;11.34;73.04;102283.78;4949897;29;10127;-66
2022/10/07 05:53:42;;;;;;;;;5.00;5.00;;;;;11.36;72.54;102290.72;4946861;28;10815;-65
2022/10/07 05:56:11;;;;;;;;;9.00;6.50;;;;;11.35;72.78;102278.25;4948419;28;10050;-66
2022/10/07 05:58:38;;;;;;;;;6.00;6.00;;;;;11.32;72.89;102280.41;4946241;29;10117;-66
2022/10/07 06:01:13;;;;;;;;;8.00;6.00;;;;;11.31;72.64;102279.59;4941461;29;10131;-66
2022/10/07 06:03:42;;;;;;;;;6.75;4.25;;;;;11.29;72.59;102272.66;4966091;28;10136;-66
2022/10/07 06:06:09;;;;;;;;;6.50;6.50;;;;;11.20;72.88;102268.25;4950187;28;10225;-66
2022/10/07 06:08:36;;;;;;;;;6.75;5.00;;;;;11.21;73.03;102275.31;4934639;28;10300;-66
2022/10/07 06:13:53;;;;;;;;;4.75;4.00;;;;;11.28;72.98;102271.81;4948858;29;10960;-66
2022/10/07 06:16:21;;;;;;;;;8.25;7.00;;;;;11.28;72.72;102276.38;4932123;29;10040;-66
2022/10/07 06:18:51;;;;;;;;;5.50;5.50;;;;;11.28;73.25;102279.06;4947783;29;10137;-66
2022/10/07 06:21:26;;;;;;;;;9.00;6.50;;;;;11.26;73.06;102283.75;4929934;29;10326;-67
2022/10/07 06:23:57;;;;;;;;;4.00;4.00;;;;;11.25;72.77;102280.22;4939948;29;11083;-66
2022/10/07 06:26:28;;;;;;;;;5.25;5.25;;;;;11.31;72.82;102284.13;4947453;28;11058;-66
2022/10/07 06:28:56;;;;;;;;;7.00;6.00;;;;;11.31;73.02;102274.19;4947619;29;10214;-66
2022/10/07 06:31:24;;;;;;;;;4.00;4.00;;;;;11.43;72.70;102284.66;4948919;29;10289;-65
2022/10/07 06:33:56;;;;;;;;;6.25;3.50;;;;;11.48;72.62;102283.16;4948309;29;10189;-65
2022/10/07 06:36:23;;;;;;;;;4.50;4.50;;;;;11.53;72.14;102288.06;4951452;28;10071;-66
2022/10/07 06:38:54;;;;;;;;;5.00;2.00;;;;;11.56;72.22;102285.03;4938222;29;10029;-66
2022/10/07 06:41:25;;;;;;;;;5.00;5.00;;;;;11.56;71.75;102291.25;4949408;28;9934;-66
2022/10/07 06:44:04;;;;;;;;;7.75;4.50;;;;;11.61;71.91;102288.06;4948215;29;10016;-66
2022/10/07 06:46:30;;;;;;;;;5.00;4.75;;;;;11.59;71.40;102282.00;4946077;28;10055;-66
2022/10/07 06:48:57;;;;;;;;;4.00;3.00;;;;;11.59;71.74;102282.00;4952573;28;10147;-65
2022/10/07 06:51:24;;;;;;;;;6.50;4.25;;;;;11.61;71.82;102280.81;4951282;28;10161;-65
2022/10/07 06:53:55;;;;;;;;;6.00;4.00;;;;;11.64;71.78;102280.50;4952769;28;10041;-65
2022/10/07 06:56:21;;;;;;;;;8.50;6.00;;;;;11.68;72.26;102283.72;4939763;28;10817;-66
2022/10/07 06:58:51;;;;;;;;;6.50;5.25;;;;;11.64;72.24;102285.06;4947690;28;10040;-65
2022/10/07 07:01:26;;;;;;;;;5.25;3.00;;;;;11.68;71.57;102280.16;4936739;28;10301;-65
2022/10/07 07:03:54;;;;;;;;;4.50;3.75;;;;;11.63;71.82;102283.38;4951617;28;10057;-64
2022/10/07 07:06:20;;;;;;;;;6.50;6.00;;;;;11.62;72.00;102281.66;4952395;28;9954;-65
2022/10/07 07:08:48;;;;;;;;;4.50;3.75;;;;;11.68;72.18;102286.41;4949913;28;10043;-65
2022/10/07 07:11:36;;;;;;;;;6.50;6.50;;;;;11.61;72.04;102283.50;4951654;28;9971;-65
2022/10/07 07:14:11;;;;;;;;;6.00;4.00;;;;;11.66;72.18;102282.16;4943906;28;10050;-65
2022/10/07 07:16:41;;;;;;;;;6.25;6.00;;;;;11.71;72.10;102288.78;4937392;28;10044;-65
2022/10/07 07:19:11;;;;;;;;;8.00;7.50;;;;;11.76;72.10;102290.97;4965706;28;10044;-65
2022/10/07 07:21:39;;;;;;;;;6.25;6.25;;;;;11.79;72.52;102286.09;4951184;28;10060;-65
2022/10/07 07:24:09;;;;;;;;;6.00;6.00;;;;;11.86;72.53;102292.50;4939333;28;10056;-65
2022/10/07 07:26:38;;;;;;;;;6.25;6.00;;;;;11.92;71.90;102287.47;4966657;28;9954;-65
2022/10/07 07:29:07;;;;;;;;;6.25;5.00;;;;;11.89;72.33;102288.66;4957365;28;9871;-65
2022/10/07 07:31:41;;;;;;;;;5.25;3.00;;;;;11.89;72.33;102285.94;4949391;28;10657;-65
2022/10/07 07:34:10;;;;;;;;;4.50;4.50;;;;;11.95;72.38;102279.91;4949277;28;9936;-66
2022/10/07 07:36:43;;;;;;;;;5.50;4.50;;;;;12.00;71.81;102272.13;4952938;28;10045;-65
2022/10/07 07:39:12;;;;;;;;;6.00;4.50;;;;;12.00;72.32;102264.03;4946705;28;9976;-65
2022/10/07 07:41:45;;;;;;;;;5.75;5.75;;;;;12.03;72.23;102269.09;4942504;28;10061;-65
2022/10/07 07:44:15;;;;;;;;;7.75;5.00;;;;;12.09;72.23;102278.38;4958046;28;10730;-65
2022/10/07 07:46:47;;;;;;;;;8.25;6.00;;;;;12.11;72.37;102260.13;4941918;28;9873;-65
2022/10/07 07:49:17;;;;;;;;;7.50;4.00;;;;;12.17;72.45;102275.66;4943081;28;10061;-65
2022/10/07 07:51:46;;;;;;;;;7.50;5.00;;;;;12.22;72.11;102267.06;4946000;28;10052;-65
2022/10/07 07:54:19;;;;;;;;;6.00;4.75;;;;;12.23;72.30;102263.34;4945116;28;9983;-65
2022/10/07 07:56:47;;;;;;;;;3.50;2.50;;;;;12.26;72.23;102271.94;4943786;28;9942;-65
2022/10/07 07:59:15;;;;;;;;;3.75;3.75;;;;;12.26;72.10;102274.63;4944524;28;10128;-65
2022/10/07 08:01:44;;;;;;;;;4.00;1.75;;;;;12.31;72.50;102266.84;4942697;28;9965;-64
2022/10/07 08:04:14;;;;;;;;;5.00;3.00;;;;;12.40;72.44;102261.44;4948370;28;9807;-65
2022/10/07 08:06:42;;;;;;;;;4.50;4.25;;;;;12.49;72.12;102255.88;4941313;28;9931;-66
2022/10/07 08:09:08;;;;;;;;;5.00;5.00;;;;;12.55;72.05;102262.44;4944589;28;9824;-66
2022/10/07 08:11:36;;;;;;;;;3.75;3.75;;;;;12.62;72.01;102258.03;4943379;28;9799;-66
2022/10/07 08:14:03;;;;;;;;;5.50;5.00;;;;;12.66;72.20;102258.53;4943700;28;9724;-66
2022/10/07 08:16:32;;;;;;;;;6.50;6.50;;;;;12.77;71.70;102260.88;4942191;28;9816;-66
2022/10/07 08:18:59;;;;;;;;;3.25;2.25;;;;;12.92;71.68;102258.25;4946064;28;9639;-66
2022/10/07 08:21:31;;;;;;;;;5.50;5.00;;;;;12.89;71.81;102262.19;4944292;28;9631;-66
2022/10/07 08:24:01;;;;;;;;;2.00;2.00;;;;;13.02;71.69;102265.16;4948335;28;9750;-66
2022/10/07 08:26:32;;;;;;;;;3.50;3.25;;;;;13.13;71.15;102244.19;4943328;28;9719;-65
2022/10/07 08:29:02;;;;;;;;;6.00;3.00;;;;;13.17;71.14;102251.75;4959195;28;9661;-65
2022/10/07 08:31:30;;;;;;;;;8.25;6.25;;;;;13.16;71.24;102250.03;4946132;28;9651;-66
2022/10/07 08:33:59;;;;;;;;;6.00;3.25;;;;;13.07;71.41;102251.13;4948112;28;9703;-66
2022/10/07 08:36:27;;;;;;;;;2.00;2.00;;;;;13.04;71.82;102246.06;4943408;28;10179;-65
2022/10/07 08:38:54;;;;;;;;;3.00;3.00;;;;;13.04;71.71;102240.66;4942921;28;9570;-65
2022/10/07 08:41:33;;;;;;;;;8.25;6.75;;;;;13.05;71.84;102235.09;4944365;28;9570;-65
2022/10/07 08:44:35;;;;;;;;;6.00;6.00;;;;;13.10;71.75;102248.06;4947670;28;9732;-65
2022/10/07 08:47:24;;;;;;;;;3.75;3.75;;;;;13.16;71.75;102244.63;4942956;28;9541;-66
2022/10/07 08:50:18;;;;;;;;;5.25;4.25;;;;;13.14;71.99;102238.59;4948056;28;9756;-66
2022/10/07 08:53:00;;;;;;;;;3.75;3.00;;;;;13.20;71.80;102245.97;4947884;28;9816;-64
2022/10/07 08:55:51;;;;;;;;;2.50;2.50;;;;;13.20;72.01;102237.03;4933436;29;9542;-65
2022/10/07 08:58:49;;;;;;;;;5.00;3.00;;;;;13.24;71.84;102228.41;4933305;29;10314;-65
2022/10/07 09:01:26;;;;;;;;;2.75;2.75;;;;;13.27;72.20;102229.91;4933358;28;9487;-65
2022/10/07 09:03:59;;;;;;;;;4.00;2.00;;;;;13.29;71.98;102228.72;4937266;28;9387;-65
2022/10/07 09:06:37;;;;;;;;;3.33;2.00;;;;;13.22;72.37;102224.19;4933988;28;9390;-64
2022/10/07 09:09:13;;;;;;;;;3.00;3.00;;;;;13.18;72.31;102226.41;4932851;29;9403;-65
2022/10/07 09:11:42;;;;;;;;;6.25;5.25;;;;;13.22;72.53;102233.13;4931583;29;9534;-65
2022/10/07 09:14:25;;;;;;;;;3.00;3.00;;;;;13.27;72.23;102225.34;4933083;29;9544;-65
2022/10/07 09:16:55;;;;;;;;;5.50;2.25;;;;;13.15;72.79;102223.19;4932946;29;9733;-65
2022/10/07 09:19:30;;;;;;;;;3.75;2.50;;;;;13.23;72.19;102217.78;4932542;29;10216;-65
2022/10/07 09:22:05;;;;;;;;;4.00;4.00;;;;;13.27;72.67;102213.69;4941915;28;9631;-65
2022/10/07 09:24:33;;;;;;;;;4.00;4.00;;;;;13.31;72.47;102209.63;4951386;28;9528;-65
2022/10/07 09:27:06;;;;;;;;;1.67;1.00;;;;;13.32;72.57;102209.41;4951883;28;10040;-65
2022/10/07 09:29:32;;;;;;;;;4.75;3.25;;;;;13.31;72.69;102215.84;4942115;28;9334;-65
2022/10/07 09:31:59;;;;;;;;;3.50;3.50;;;;;13.34;72.62;102198.44;4932839;29;9544;-65
2022/10/07 09:34:27;;;;;;;;;3.50;2.00;;;;;13.39;72.77;102195.19;4932506;29;10122;-65
2022/10/07 09:37:13;;;;;;;;;2.33;2.33;;;;;13.40;72.56;102194.16;4947784;28;9560;-65
2022/10/07 09:39:41;;;;;;;;;2.00;2.00;;;;;13.42;72.75;102209.22;4950611;28;9318;-65
2022/10/07 09:42:42;;;;;;;;;4.00;3.00;;;;;13.41;72.36;102198.53;4934527;29;9489;-65
2022/10/07 09:45:23;;;;;;;;;5.00;3.50;;;;;13.40;72.48;102199.56;4932873;29;9421;-65
2022/10/07 09:47:54;;;;;;;;;5.25;4.00;;;;;13.39;72.77;102200.59;4951520;28;10329;-65
2022/10/07 09:50:37;;;;;;;;;2.00;2.00;;;;;13.39;72.61;102200.59;4952005;29;9708;-65
2022/10/07 09:53:15;;;;;;;;;2.50;2.50;;;;;13.38;72.85;102196.22;4952052;28;9316;-65
2022/10/07 09:55:42;;;;;;;;;2.50;2.50;;;;;13.41;72.97;102198.53;4951983;28;9740;-66
2022/10/07 09:58:29;;;;;;;;;3.00;3.00;;;;;13.40;72.97;102192.31;4941452;28;10254;-66
2022/10/07 10:00:58;;;;;;;;;3.00;2.00;;;;;13.46;73.32;102190.75;4932358;29;9564;-66
2022/10/07 10:03:33;;;;;;;;;3.00;2.00;;;;;13.49;73.02;102188.53;4946575;28;9315;-66
2022/10/07 10:06:02;;;;;;;;;2.75;2.00;;;;;13.58;73.15;102190.16;4951563;28;9612;-65
2022/10/07 10:08:30;;;;;;;;;1.67;1.67;;;;;13.62;72.55;102185.22;4951556;28;9537;-65
2022/10/07 10:11:02;;;;;;;;;2.00;2.00;;;;;13.64;72.48;102185.03;4949827;28;9265;-65
2022/10/07 10:13:33;;;;;;;;;3.67;1.00;;;;;13.68;72.34;102175.53;4949920;28;9497;-65
2022/10/07 10:16:01;;;;;;;;;2.25;2.25;;;;;13.70;72.50;102179.75;4951535;28;9387;-65
2022/10/07 10:18:35;;;;;;;;;6.00;4.50;;;;;13.75;72.23;102177.31;4946985;28;9343;-65
2022/10/07 10:21:26;;;;;;;;;3.00;3.00;;;;;13.73;72.26;102167.69;4947057;28;9482;-65
2022/10/07 10:23:55;;;;;;;;;1.67;1.67;;;;;13.75;72.55;102158.38;4955253;28;9337;-65
2022/10/07 10:26:30;;;;;;;;;5.00;5.00;;;;;13.77;72.22;102156.34;4949795;28;9362;-65
2022/10/07 10:29:18;;;;;;;;;5.67;1.67;;;;;13.87;72.37;102147.13;4950673;28;9579;-65
2022/10/07 10:32:00;;;;;;;;;3.00;3.00;;;;;13.94;72.26;102150.78;4947292;28;9372;-65
2022/10/07 10:35:17;;;;;;;;;0.67;0.67;;;;;14.01;72.43;102147.13;4952335;28;9280;-65
2022/10/07 10:38:09;;;;;;;;;5.33;4.00;;;;;14.10;72.22;102135.19;4960067;28;9380;-64
2022/10/07 10:40:36;;;;;;;;;3.00;3.00;;;;;14.12;72.44;102137.72;4944459;28;9329;-65
2022/10/07 10:43:23;;;;;;;;;2.00;2.00;;;;;14.17;72.19;102137.97;4947175;28;9359;-66
2022/10/07 10:46:01;;;;;;;;;4.50;3.00;;;;;14.23;71.65;102126.41;4978567;23;9342;-68
2022/10/07 10:48:31;;;;;;;;;4.00;1.00;;;;;14.22;72.04;102122.03;4937807;28;9482;-67
2022/10/07 10:51:16;;;;;;;;;3.00;2.67;;;;;14.30;72.16;102119.22;4952488;28;9330;-66
2022/10/07 10:54:03;;;;;;;;;2.00;2.00;;;;;14.37;72.15;102113.03;4952000;28;9476;-66
2022/10/07 10:56:57;;;;;;;;;3.00;3.00;;;;;14.47;72.18;102111.75;4932736;29;9401;-66
2022/10/07 10:59:59;;;;;;;;;2.00;2.00;;;;;14.50;71.68;102107.81;4927085;28;9345;-66
2022/10/07 11:02:32;;;;;;;;;14.00;11.50;;;;;14.55;71.66;102113.53;4930042;29;9402;-65
2022/10/07 11:05:11;;;;;;;;;8.33;6.00;;;;;14.58;71.68;102107.72;4931851;29;9459;-65
2022/10/07 11:07:53;;;;;;;;;3.67;3.00;;;;;14.61;71.51;102103.81;4934805;29;9296;-66
2022/10/07 11:11:05;;;;;;;;;5.67;3.00;;;;;14.57;71.60;102097.91;4928020;28;9729;-66
2022/10/07 11:14:06;;;;;;;;;6.00;6.00;;;;;14.49;71.64;102107.00;4924929;29;9033;-66
2022/10/07 11:16:41;;;;;;;;;3.67;2.67;;;;;14.54;71.45;102101.00;4941813;28;9237;-66
2022/10/07 11:19:22;;;;;;;;;4.00;2.00;;;;;14.56;71.38;102088.94;4933895;29;9227;-66
2022/10/07 11:21:51;;;;;;;;;2.00;2.00;;;;;14.70;71.06;102095.34;4933154;29;9081;-66
2022/10/07 11:24:37;;;;;;;;;4.00;4.00;;;;;14.83;70.36;102086.56;4934085;29;9231;-66
2022/10/07 11:27:31;;;;;;;;;4.33;1.00;;;;;14.97;69.67;102088.34;4931113;29;9104;-66
2022/10/07 11:30:21;;;;;;;;;3.00;2.00;;;;;15.06;69.69;102075.50;4949233;28;9083;-66
2022/10/07 11:33:12;;;;;;;;;3.33;3.33;;;;;15.05;69.53;102071.13;4931710;29;9114;-66
2022/10/07 11:35:49;;;;;;;;;6.00;3.00;;;;;14.98;69.51;102071.06;4929383;29;8939;-66
2022/10/07 11:38:19;;;;;;;;;6.00;6.00;;;;;15.01;69.20;102064.41;4933165;28;9005;-66
2022/10/07 11:40:56;;;;;;;;;2.00;2.00;;;;;15.07;68.71;102053.63;4932478;29;9903;-66
2022/10/07 11:43:31;;;;;;;;;2.67;1.00;;;;;15.14;68.58;102055.56;4916577;29;9041;-66
2022/10/07 11:46:14;;;;;;;;;1.33;1.33;;;;;15.14;68.31;102061.81;4931974;29;8916;-67
2022/10/07 11:48:47;;;;;;;;;3.00;3.00;;;;;15.02;68.00;102047.94;4933792;29;9159;-66
2022/10/07 11:51:22;;;;;;;;;0.67;0.67;;;;;15.08;68.26;102047.19;4933800;29;9163;-66
2022/10/07 11:53:53;;;;;;;;;3.00;1.25;;;;;15.19;68.39;102043.09;4932305;29;8945;-66
2022/10/07 11:56:25;;;;;;;;;1.67;1.67;;;;;15.11;68.25;102035.09;4923261;29;9645;-67
2022/10/07 11:58:59;;;;;;;;;1.00;1.00;;;;;15.22;68.00;102031.84;4930321;29;9076;-66
2022/10/07 12:01:30;;;;;;;;;1.00;1.00;;;;;15.28;67.76;102019.38;4934037;29;8866;-66